sensor_id;sensor_type;location;lat;lon;timestamp;temperature;humidity
47482;DHT22;33219;47.410;9.730;2023-04-24T00:02:06;8.90;99.90
47482;DHT22;33219;47.410;9.730;2023-04-24T00:04:36;8.90;99.90
47482;DHT22;33219;47.410;9.730;2023-04-24T00:07:06;8.90;99.90
47482;DHT22;33219;47.410;9.730;2023-04-24T00:09:34;8.90;99.90
47482;DHT22;33219;47.410;9.730;2023-04-24T00:12:01;8.80;99.90
47482;DHT22;33219;47.410;9.730;2023-04-24T00:14:31;8.70;99.90
47482;DHT22;33219;47.410;9.730;2023-04-24T00:16:59;8.80;99.90
47482;DHT22;33219;47.410;9.730;2023-04-24T00:19:27;8.80;99.90
47482;DHT22;33219;47.410;9.730;2023-04-24T00:21:55;8.90;99.90
47482;DHT22;33219;47.410;9.730;2023-04-24T00:24:22;8.90;99.90
47482;DHT22;33219;47.410;9.730;2023-04-24T00:26:50;9.00;99.90
47482;DHT22;33219;47.410;9.730;2023-04-24T00:29:17;8.90;99.90
47482;DHT22;33219;47.410;9.730;2023-04-24T00:31:45;9.00;99.90
47482;DHT22;33219;47.410;9.730;2023-04-24T00:34:12;9.00;99.90
47482;DHT22;33219;47.410;9.730;2023-04-24T00:36:40;9.00;99.90
47482;DHT22;33219;47.410;9.730;2023-04-24T00:39:08;9.00;99.90
47482;DHT22;33219;47.410;9.730;2023-04-24T00:41:36;9.00;99.90
47482;DHT22;33219;47.410;9.730;2023-04-24T00:44:03;9.00;99.90
47482;DHT22;33219;47.410;9.730;2023-04-24T00:46:31;9.00;99.90
47482;DHT22;33219;47.410;9.730;2023-04-24T00:48:59;9.00;99.90
47482;DHT22;33219;47.410;9.730;2023-04-24T00:51:27;9.00;99.90
47482;DHT22;33219;47.410;9.730;2023-04-24T00:53:55;9.00;99.90
47482;DHT22;33219;47.410;9.730;2023-04-24T00:56:22;9.00;99.90
47482;DHT22;33219;47.410;9.730;2023-04-24T00:58:50;8.90;99.90
47482;DHT22;33219;47.410;9.730;2023-04-24T01:01:21;8.90;99.90
47482;DHT22;33219;47.410;9.730;2023-04-24T01:03:50;8.90;99.90
47482;DHT22;33219;47.410;9.730;2023-04-24T01:06:19;8.90;99.90
47482;DHT22;33219;47.410;9.730;2023-04-24T01:08:48;8.80;99.90
47482;DHT22;33219;47.410;9.730;2023-04-24T01:11:16;8.80;99.90
47482;DHT22;33219;47.410;9.730;2023-04-24T01:13:43;8.90;99.90
47482;DHT22;33219;47.410;9.730;2023-04-24T01:16:11;8.90;99.90
47482;DHT22;33219;47.410;9.730;2023-04-24T01:18:38;8.90;99.90
47482;DHT22;33219;47.410;9.730;2023-04-24T01:21:07;8.90;99.90
47482;DHT22;33219;47.410;9.730;2023-04-24T01:23:35;8.90;99.90
47482;DHT22;33219;47.410;9.730;2023-04-24T01:26:03;8.90;99.90
47482;DHT22;33219;47.410;9.730;2023-04-24T01:28:31;8.80;99.90
47482;DHT22;33219;47.410;9.730;2023-04-24T01:30:59;8.80;99.90
47482;DHT22;33219;47.410;9.730;2023-04-24T01:33:26;8.80;99.90
47482;DHT22;33219;47.410;9.730;2023-04-24T01:35:54;8.70;99.90
47482;DHT22;33219;47.410;9.730;2023-04-24T01:38:22;8.70;99.90
47482;DHT22;33219;47.410;9.730;2023-04-24T01:40:50;8.70;99.90
47482;DHT22;33219;47.410;9.730;2023-04-24T01:43:18;8.70;99.90
47482;DHT22;33219;47.410;9.730;2023-04-24T01:45:46;8.70;99.90
47482;DHT22;33219;47.410;9.730;2023-04-24T01:48:14;8.80;99.90
47482;DHT22;33219;47.410;9.730;2023-04-24T01:50:41;8.70;99.90
47482;DHT22;33219;47.410;9.730;2023-04-24T01:53:09;8.70;99.90
47482;DHT22;33219;47.410;9.730;2023-04-24T01:55:37;8.70;99.90
47482;DHT22;33219;47.410;9.730;2023-04-24T01:58:05;8.70;99.90
47482;DHT22;33219;47.410;9.730;2023-04-24T02:00:33;8.70;99.90
47482;DHT22;33219;47.410;9.730;2023-04-24T02:03:00;8.70;99.90
47482;DHT22;33219;47.410;9.730;2023-04-24T02:05:28;8.70;99.90
47482;DHT22;33219;47.410;9.730;2023-04-24T02:07:56;8.60;99.90
47482;DHT22;33219;47.410;9.730;2023-04-24T02:10:23;8.60;99.90
47482;DHT22;33219;47.410;9.730;2023-04-24T02:12:51;8.60;99.90
47482;DHT22;33219;47.410;9.730;2023-04-24T02:15:19;8.60;99.90
47482;DHT22;33219;47.410;9.730;2023-04-24T02:17:47;8.50;99.90
47482;DHT22;33219;47.410;9.730;2023-04-24T02:20:14;8.40;99.90
47482;DHT22;33219;47.410;9.730;2023-04-24T02:22:42;8.30;99.90
47482;DHT22;33219;47.410;9.730;2023-04-24T02:25:10;8.30;99.90
47482;DHT22;33219;47.410;9.730;2023-04-24T02:27:37;8.20;99.90
47482;DHT22;33219;47.410;9.730;2023-04-24T02:30:05;8.30;99.90
47482;DHT22;33219;47.410;9.730;2023-04-24T02:32:33;8.30;99.90
47482;DHT22;33219;47.410;9.730;2023-04-24T02:35:01;8.30;99.90
47482;DHT22;33219;47.410;9.730;2023-04-24T02:37:28;8.20;99.90
47482;DHT22;33219;47.410;9.730;2023-04-24T02:39:56;8.20;99.90
47482;DHT22;33219;47.410;9.730;2023-04-24T02:42:24;8.10;99.90
47482;DHT22;33219;47.410;9.730;2023-04-24T02:44:51;8.20;99.90
47482;DHT22;33219;47.410;9.730;2023-04-24T02:47:19;8.20;99.90
47482;DHT22;33219;47.410;9.730;2023-04-24T02:49:46;8.20;99.90
47482;DHT22;33219;47.410;9.730;2023-04-24T02:52:14;8.20;99.90
47482;DHT22;33219;47.410;9.730;2023-04-24T02:54:43;8.30;99.90
47482;DHT22;33219;47.410;9.730;2023-04-24T02:57:11;8.30;99.90
47482;DHT22;33219;47.410;9.730;2023-04-24T02:59:38;8.30;99.90
47482;DHT22;33219;47.410;9.730;2023-04-24T03:02:06;8.30;99.90
47482;DHT22;33219;47.410;9.730;2023-04-24T03:04:33;8.40;99.90
47482;DHT22;33219;47.410;9.730;2023-04-24T03:07:01;8.40;99.90
47482;DHT22;33219;47.410;9.730;2023-04-24T03:09:29;8.40;99.90
47482;DHT22;33219;47.410;9.730;2023-04-24T03:11:56;8.40;99.90
47482;DHT22;33219;47.410;9.730;2023-04-24T03:14:24;8.40;99.90
47482;DHT22;33219;47.410;9.730;2023-04-24T03:16:52;8.40;99.90
47482;DHT22;33219;47.410;9.730;2023-04-24T03:19:19;8.30;99.90
47482;DHT22;33219;47.410;9.730;2023-04-24T03:21:47;8.30;99.90
47482;DHT22;33219;47.410;9.730;2023-04-24T03:24:15;8.30;99.90
47482;DHT22;33219;47.410;9.730;2023-04-24T03:26:42;8.30;99.90
47482;DHT22;33219;47.410;9.730;2023-04-24T03:29:10;8.30;99.90
47482;DHT22;33219;47.410;9.730;2023-04-24T03:31:37;8.30;99.90
47482;DHT22;33219;47.410;9.730;2023-04-24T03:34:05;8.20;99.90
47482;DHT22;33219;47.410;9.730;2023-04-24T03:36:33;8.10;99.90
47482;DHT22;33219;47.410;9.730;2023-04-24T03:39:00;8.10;99.90
47482;DHT22;33219;47.410;9.730;2023-04-24T03:41:28;8.10;99.90
47482;DHT22;33219;47.410;9.730;2023-04-24T03:43:56;8.10;99.90
47482;DHT22;33219;47.410;9.730;2023-04-24T03:46:24;8.10;99.90
47482;DHT22;33219;47.410;9.730;2023-04-24T03:48:51;8.00;99.90
47482;DHT22;33219;47.410;9.730;2023-04-24T03:51:19;8.00;99.90
47482;DHT22;33219;47.410;9.730;2023-04-24T03:53:47;8.00;99.90
47482;DHT22;33219;47.410;9.730;2023-04-24T03:56:14;8.10;99.90
47482;DHT22;33219;47.410;9.730;2023-04-24T03:58:42;8.10;99.90
47482;DHT22;33219;47.410;9.730;2023-04-24T04:01:10;8.20;99.90
47482;DHT22;33219;47.410;9.730;2023-04-24T04:03:38;8.20;99.90
47482;DHT22;33219;47.410;9.730;2023-04-24T04:06:06;8.20;99.90
47482;DHT22;33219;47.410;9.730;2023-04-24T04:08:33;8.20;99.90
47482;DHT22;33219;47.410;9.730;2023-04-24T04:11:01;8.20;99.90
47482;DHT22;33219;47.410;9.730;2023-04-24T04:13:29;8.20;99.90
47482;DHT22;33219;47.410;9.730;2023-04-24T04:15:57;8.20;99.90
47482;DHT22;33219;47.410;9.730;2023-04-24T04:18:25;8.20;99.90
47482;DHT22;33219;47.410;9.730;2023-04-24T04:20:52;8.20;99.90
47482;DHT22;33219;47.410;9.730;2023-04-24T04:23:19;8.30;99.90
47482;DHT22;33219;47.410;9.730;2023-04-24T04:25:47;8.20;99.90
47482;DHT22;33219;47.410;9.730;2023-04-24T04:28:15;8.30;99.90
47482;DHT22;33219;47.410;9.730;2023-04-24T04:30:42;8.20;99.90
47482;DHT22;33219;47.410;9.730;2023-04-24T04:33:10;8.20;99.90
47482;DHT22;33219;47.410;9.730;2023-04-24T04:35:38;8.10;99.90
47482;DHT22;33219;47.410;9.730;2023-04-24T04:38:06;8.20;99.90
47482;DHT22;33219;47.410;9.730;2023-04-24T04:40:34;8.20;99.90
47482;DHT22;33219;47.410;9.730;2023-04-24T04:43:02;8.20;99.90
47482;DHT22;33219;47.410;9.730;2023-04-24T04:45:30;8.10;99.90
47482;DHT22;33219;47.410;9.730;2023-04-24T04:47:59;8.00;99.90
47482;DHT22;33219;47.410;9.730;2023-04-24T04:50:28;8.00;99.90
47482;DHT22;33219;47.410;9.730;2023-04-24T04:52:56;8.00;99.90
47482;DHT22;33219;47.410;9.730;2023-04-24T04:55:24;8.00;99.90
47482;DHT22;33219;47.410;9.730;2023-04-24T04:57:52;8.00;99.90
47482;DHT22;33219;47.410;9.730;2023-04-24T05:00:20;8.10;99.90
47482;DHT22;33219;47.410;9.730;2023-04-24T05:02:47;8.10;99.90
47482;DHT22;33219;47.410;9.730;2023-04-24T05:05:15;8.10;99.90
47482;DHT22;33219;47.410;9.730;2023-04-24T05:07:44;8.10;99.90
47482;DHT22;33219;47.410;9.730;2023-04-24T05:10:12;8.20;99.90
47482;DHT22;33219;47.410;9.730;2023-04-24T05:12:39;8.20;99.90
47482;DHT22;33219;47.410;9.730;2023-04-24T05:15:07;8.20;99.90
47482;DHT22;33219;47.410;9.730;2023-04-24T05:17:35;8.30;99.90
47482;DHT22;33219;47.410;9.730;2023-04-24T05:20:03;8.30;99.90
47482;DHT22;33219;47.410;9.730;2023-04-24T05:22:32;8.40;99.90
47482;DHT22;33219;47.410;9.730;2023-04-24T05:25:00;8.50;99.90
47482;DHT22;33219;47.410;9.730;2023-04-24T05:27:28;8.50;99.90
47482;DHT22;33219;47.410;9.730;2023-04-24T05:29:59;8.60;99.90
47482;DHT22;33219;47.410;9.730;2023-04-24T05:32:55;8.60;99.90
47482;DHT22;33219;47.410;9.730;2023-04-24T05:35:14;8.70;99.90
47482;DHT22;33219;47.410;9.730;2023-04-24T05:37:50;8.70;99.90
47482;DHT22;33219;47.410;9.730;2023-04-24T05:40:30;8.70;99.90
47482;DHT22;33219;47.410;9.730;2023-04-24T05:46:09;8.70;99.90
47482;DHT22;33219;47.410;9.730;2023-04-24T05:52:01;8.60;99.90
47482;DHT22;33219;47.410;9.730;2023-04-24T05:54:40;8.60;99.90
47482;DHT22;33219;47.410;9.730;2023-04-24T05:57:25;8.60;99.90
47482;DHT22;33219;47.410;9.730;2023-04-24T06:00:13;8.60;99.90
47482;DHT22;33219;47.410;9.730;2023-04-24T06:02:47;8.60;99.90
47482;DHT22;33219;47.410;9.730;2023-04-24T06:05:24;8.60;99.90
47482;DHT22;33219;47.410;9.730;2023-04-24T06:08:07;8.60;99.90
47482;DHT22;33219;47.410;9.730;2023-04-24T06:10:58;8.70;99.90
47482;DHT22;33219;47.410;9.730;2023-04-24T06:13:33;8.60;99.90
47482;DHT22;33219;47.410;9.730;2023-04-24T06:25:30;8.50;99.90
47482;DHT22;33219;47.410;9.730;2023-04-24T06:28:13;8.50;99.90
47482;DHT22;33219;47.410;9.730;2023-04-24T06:31:10;8.50;99.90
47482;DHT22;33219;47.410;9.730;2023-04-24T06:40:44;8.40;99.90
47482;DHT22;33219;47.410;9.730;2023-04-24T06:43:02;8.50;99.90
47482;DHT22;33219;47.410;9.730;2023-04-24T06:45:52;8.50;99.90
47482;DHT22;33219;47.410;9.730;2023-04-24T06:48:23;8.50;99.90
47482;DHT22;33219;47.410;9.730;2023-04-24T06:50:57;8.50;99.90
47482;DHT22;33219;47.410;9.730;2023-04-24T06:53:40;8.50;99.90
47482;DHT22;33219;47.410;9.730;2023-04-24T06:56:14;8.50;99.90
47482;DHT22;33219;47.410;9.730;2023-04-24T06:58:43;8.50;99.90
47482;DHT22;33219;47.410;9.730;2023-04-24T07:01:13;8.50;99.90
47482;DHT22;33219;47.410;9.730;2023-04-24T07:03:42;8.40;99.90
47482;DHT22;33219;47.410;9.730;2023-04-24T07:06:10;8.50;99.90
47482;DHT22;33219;47.410;9.730;2023-04-24T07:08:44;8.50;99.90
47482;DHT22;33219;47.410;9.730;2023-04-24T07:11:33;8.50;99.90
47482;DHT22;33219;47.410;9.730;2023-04-24T07:17:52;8.60;99.90
47482;DHT22;33219;47.410;9.730;2023-04-24T07:20:33;8.60;99.90
47482;DHT22;33219;47.410;9.730;2023-04-24T07:23:17;8.60;99.90
47482;DHT22;33219;47.410;9.730;2023-04-24T07:29:04;8.70;99.90
47482;DHT22;33219;47.410;9.730;2023-04-24T07:31:45;8.90;99.90
47482;DHT22;33219;47.410;9.730;2023-04-24T07:37:41;9.10;99.90
47482;DHT22;33219;47.410;9.730;2023-04-24T07:40:33;9.10;99.90
47482;DHT22;33219;47.410;9.730;2023-04-24T07:43:12;9.10;99.90
47482;DHT22;33219;47.410;9.730;2023-04-24T07:46:08;9.20;99.90
47482;DHT22;33219;47.410;9.730;2023-04-24T07:48:47;9.10;99.90
47482;DHT22;33219;47.410;9.730;2023-04-24T07:51:32;9.20;99.90
47482;DHT22;33219;47.410;9.730;2023-04-24T07:54:10;9.10;99.90
47482;DHT22;33219;47.410;9.730;2023-04-24T07:56:48;9.10;99.90
47482;DHT22;33219;47.410;9.730;2023-04-24T07:59:28;9.30;99.90
47482;DHT22;33219;47.410;9.730;2023-04-24T08:02:15;9.50;99.90
47482;DHT22;33219;47.410;9.730;2023-04-24T08:04:57;9.70;99.90
47482;DHT22;33219;47.410;9.730;2023-04-24T08:08:10;10.00;99.90
47482;DHT22;33219;47.410;9.730;2023-04-24T08:10:34;10.20;99.90
47482;DHT22;33219;47.410;9.730;2023-04-24T08:16:03;10.70;99.90
47482;DHT22;33219;47.410;9.730;2023-04-24T08:18:40;10.90;99.90
47482;DHT22;33219;47.410;9.730;2023-04-24T08:21:27;11.10;99.90
47482;DHT22;33219;47.410;9.730;2023-04-24T08:24:06;11.20;99.90
47482;DHT22;33219;47.410;9.730;2023-04-24T08:26:45;11.40;99.90
47482;DHT22;33219;47.410;9.730;2023-04-24T08:29:32;11.50;99.90
47482;DHT22;33219;47.410;9.730;2023-04-24T08:32:05;11.50;99.90
47482;DHT22;33219;47.410;9.730;2023-04-24T08:35:00;11.40;99.90
47482;DHT22;33219;47.410;9.730;2023-04-24T08:37:52;11.30;99.90
47482;DHT22;33219;47.410;9.730;2023-04-24T08:40:32;11.10;99.90
47482;DHT22;33219;47.410;9.730;2023-04-24T08:43:19;11.10;99.90
47482;DHT22;33219;47.410;9.730;2023-04-24T08:46:00;11.00;99.90
47482;DHT22;33219;47.410;9.730;2023-04-24T08:51:20;10.60;99.90
47482;DHT22;33219;47.410;9.730;2023-04-24T08:53:58;10.50;99.90
47482;DHT22;33219;47.410;9.730;2023-04-24T08:56:32;10.40;99.90
47482;DHT22;33219;47.410;9.730;2023-04-24T08:59:07;10.40;99.90
47482;DHT22;33219;47.410;9.730;2023-04-24T09:01:42;10.40;99.90
47482;DHT22;33219;47.410;9.730;2023-04-24T09:04:18;10.40;99.90
47482;DHT22;33219;47.410;9.730;2023-04-24T09:07:15;10.40;99.90
47482;DHT22;33219;47.410;9.730;2023-04-24T09:09:50;10.30;99.90
47482;DHT22;33219;47.410;9.730;2023-04-24T09:12:33;10.00;99.90
47482;DHT22;33219;47.410;9.730;2023-04-24T09:18:23;9.30;99.90
47482;DHT22;33219;47.410;9.730;2023-04-24T09:21:11;9.10;99.90
47482;DHT22;33219;47.410;9.730;2023-04-24T09:23:58;9.20;99.90
47482;DHT22;33219;47.410;9.730;2023-04-24T09:26:34;9.50;99.90
47482;DHT22;33219;47.410;9.730;2023-04-24T09:29:01;9.80;99.90
47482;DHT22;33219;47.410;9.730;2023-04-24T09:31:36;10.00;99.90
47482;DHT22;33219;47.410;9.730;2023-04-24T09:34:10;10.30;99.90
47482;DHT22;33219;47.410;9.730;2023-04-24T09:36:43;10.60;99.90
47482;DHT22;33219;47.410;9.730;2023-04-24T09:39:17;10.70;99.90
47482;DHT22;33219;47.410;9.730;2023-04-24T09:41:49;10.90;99.90
47482;DHT22;33219;47.410;9.730;2023-04-24T09:44:20;10.80;99.90
47482;DHT22;33219;47.410;9.730;2023-04-24T09:46:57;10.60;99.90
47482;DHT22;33219;47.410;9.730;2023-04-24T09:49:34;10.50;99.90
47482;DHT22;33219;47.410;9.730;2023-04-24T09:52:13;10.40;99.90
47482;DHT22;33219;47.410;9.730;2023-04-24T09:54:52;10.30;99.90
47482;DHT22;33219;47.410;9.730;2023-04-24T09:57:21;10.30;99.90
47482;DHT22;33219;47.410;9.730;2023-04-24T09:59:56;10.10;99.90
47482;DHT22;33219;47.410;9.730;2023-04-24T10:02:31;9.80;99.90
47482;DHT22;33219;47.410;9.730;2023-04-24T10:07:46;9.10;99.90
47482;DHT22;33219;47.410;9.730;2023-04-24T10:10:20;8.90;99.90
47482;DHT22;33219;47.410;9.730;2023-04-24T10:13:03;8.80;99.90
47482;DHT22;33219;47.410;9.730;2023-04-24T10:15:38;8.80;99.90
47482;DHT22;33219;47.410;9.730;2023-04-24T10:18:12;8.80;99.90
47482;DHT22;33219;47.410;9.730;2023-04-24T10:20:49;8.90;99.90
47482;DHT22;33219;47.410;9.730;2023-04-24T10:23:24;9.10;99.90
47482;DHT22;33219;47.410;9.730;2023-04-24T10:26:03;9.20;99.90
47482;DHT22;33219;47.410;9.730;2023-04-24T10:28:46;9.40;99.90
47482;DHT22;33219;47.410;9.730;2023-04-24T10:31:24;9.70;99.90
47482;DHT22;33219;47.410;9.730;2023-04-24T10:40:25;10.60;99.90
47482;DHT22;33219;47.410;9.730;2023-04-24T10:42:58;10.60;99.90
47482;DHT22;33219;47.410;9.730;2023-04-24T10:48:55;10.60;99.90
47482;DHT22;33219;47.410;9.730;2023-04-24T10:54:21;10.30;99.90
47482;DHT22;33219;47.410;9.730;2023-04-24T11:02:52;9.70;99.90
47482;DHT22;33219;47.410;9.730;2023-04-24T11:08:30;9.60;99.90
47482;DHT22;33219;47.410;9.730;2023-04-24T11:14:01;9.70;99.90
47482;DHT22;33219;47.410;9.730;2023-04-24T11:22:13;10.60;99.90
47482;DHT22;33219;47.410;9.730;2023-04-24T11:24:49;11.00;99.90
47482;DHT22;33219;47.410;9.730;2023-04-24T11:27:41;11.20;99.90
47482;DHT22;33219;47.410;9.730;2023-04-24T11:30:19;11.50;99.90
47482;DHT22;33219;47.410;9.730;2023-04-24T11:33:01;11.70;99.90
47482;DHT22;33219;47.410;9.730;2023-04-24T11:35:57;11.80;99.90
47482;DHT22;33219;47.410;9.730;2023-04-24T11:38:33;11.80;99.90
47482;DHT22;33219;47.410;9.730;2023-04-24T11:41:14;11.90;99.90
47482;DHT22;33219;47.410;9.730;2023-04-24T11:43:54;11.80;99.90
47482;DHT22;33219;47.410;9.730;2023-04-24T11:49:13;11.70;99.90
47482;DHT22;33219;47.410;9.730;2023-04-24T11:51:52;11.80;99.90
47482;DHT22;33219;47.410;9.730;2023-04-24T11:54:46;11.90;99.90
47482;DHT22;33219;47.410;9.730;2023-04-24T11:57:24;12.10;99.90
47482;DHT22;33219;47.410;9.730;2023-04-24T12:00:04;12.00;99.90
47482;DHT22;33219;47.410;9.730;2023-04-24T12:02:41;11.90;99.90
47482;DHT22;33219;47.410;9.730;2023-04-24T12:05:28;11.80;99.90
47482;DHT22;33219;47.410;9.730;2023-04-24T12:08:12;11.80;99.90
47482;DHT22;33219;47.410;9.730;2023-04-24T12:10:52;11.80;99.90
47482;DHT22;33219;47.410;9.730;2023-04-24T12:13:29;11.80;99.90
47482;DHT22;33219;47.410;9.730;2023-04-24T12:16:11;11.80;99.90
47482;DHT22;33219;47.410;9.730;2023-04-24T12:18:55;11.80;99.90
47482;DHT22;33219;47.410;9.730;2023-04-24T12:21:37;11.60;99.90
47482;DHT22;33219;47.410;9.730;2023-04-24T12:24:17;11.70;99.90
47482;DHT22;33219;47.410;9.730;2023-04-24T12:27:00;11.70;99.90
47482;DHT22;33219;47.410;9.730;2023-04-24T12:29:56;11.70;99.90
47482;DHT22;33219;47.410;9.730;2023-04-24T12:32:28;11.70;99.90
47482;DHT22;33219;47.410;9.730;2023-04-24T12:35:04;11.80;99.90
47482;DHT22;33219;47.410;9.730;2023-04-24T12:37:41;11.90;99.90
47482;DHT22;33219;47.410;9.730;2023-04-24T12:40:20;11.90;99.90
47482;DHT22;33219;47.410;9.730;2023-04-24T12:42:50;12.00;99.90
47482;DHT22;33219;47.410;9.730;2023-04-24T12:45:27;12.20;99.90
47482;DHT22;33219;47.410;9.730;2023-04-24T12:48:22;12.10;99.90
47482;DHT22;33219;47.410;9.730;2023-04-24T12:50:41;12.10;99.90
47482;DHT22;33219;47.410;9.730;2023-04-24T12:53:17;12.00;99.90
47482;DHT22;33219;47.410;9.730;2023-04-24T12:56:00;11.80;99.90
47482;DHT22;33219;47.410;9.730;2023-04-24T12:58:57;12.00;99.90
47482;DHT22;33219;47.410;9.730;2023-04-24T13:01:31;11.90;99.90
47482;DHT22;33219;47.410;9.730;2023-04-24T13:04:11;11.90;99.90
47482;DHT22;33219;47.410;9.730;2023-04-24T13:06:51;11.80;99.90
47482;DHT22;33219;47.410;9.730;2023-04-24T13:09:31;11.70;99.90
47482;DHT22;33219;47.410;9.730;2023-04-24T13:12:08;11.60;99.90
47482;DHT22;33219;47.410;9.730;2023-04-24T13:14:46;11.70;99.90
47482;DHT22;33219;47.410;9.730;2023-04-24T13:17:21;11.50;99.90
47482;DHT22;33219;47.410;9.730;2023-04-24T13:19:53;11.20;99.90
47482;DHT22;33219;47.410;9.730;2023-04-24T13:22:33;11.10;99.90
47482;DHT22;33219;47.410;9.730;2023-04-24T13:25:15;10.90;99.90
47482;DHT22;33219;47.410;9.730;2023-04-24T13:27:50;10.90;99.90
47482;DHT22;33219;47.410;9.730;2023-04-24T13:30:28;10.70;99.90
47482;DHT22;33219;47.410;9.730;2023-04-24T13:33:04;10.70;99.90
47482;DHT22;33219;47.410;9.730;2023-04-24T13:35:40;10.70;99.90
47482;DHT22;33219;47.410;9.730;2023-04-24T13:38:11;10.80;99.90
47482;DHT22;33219;47.410;9.730;2023-04-24T13:40:46;10.70;99.90
47482;DHT22;33219;47.410;9.730;2023-04-24T13:43:22;10.60;99.90
47482;DHT22;33219;47.410;9.730;2023-04-24T13:46:04;10.60;99.90
47482;DHT22;33219;47.410;9.730;2023-04-24T13:48:32;10.50;99.90
47482;DHT22;33219;47.410;9.730;2023-04-24T13:51:02;10.50;99.90
47482;DHT22;33219;47.410;9.730;2023-04-24T13:53:31;10.60;99.90
47482;DHT22;33219;47.410;9.730;2023-04-24T13:56:05;10.80;99.90
47482;DHT22;33219;47.410;9.730;2023-04-24T13:58:40;10.90;99.90
47482;DHT22;33219;47.410;9.730;2023-04-24T14:01:32;11.20;99.90
47482;DHT22;33219;47.410;9.730;2023-04-24T14:04:08;11.30;99.90
47482;DHT22;33219;47.410;9.730;2023-04-24T14:06:41;11.30;99.90
47482;DHT22;33219;47.410;9.730;2023-04-24T14:09:26;11.20;99.90
47482;DHT22;33219;47.410;9.730;2023-04-24T14:14:46;11.20;99.90
47482;DHT22;33219;47.410;9.730;2023-04-24T14:17:16;11.20;99.90
47482;DHT22;33219;47.410;9.730;2023-04-24T14:19:43;11.30;99.90
47482;DHT22;33219;47.410;9.730;2023-04-24T14:22:11;11.30;99.90
47482;DHT22;33219;47.410;9.730;2023-04-24T14:24:39;11.40;99.90
47482;DHT22;33219;47.410;9.730;2023-04-24T14:27:06;11.50;99.90
47482;DHT22;33219;47.410;9.730;2023-04-24T14:29:34;11.80;99.90
47482;DHT22;33219;47.410;9.730;2023-04-24T14:32:02;12.00;99.90
47482;DHT22;33219;47.410;9.730;2023-04-24T14:34:29;12.00;99.90
47482;DHT22;33219;47.410;9.730;2023-04-24T14:36:57;12.00;99.90
47482;DHT22;33219;47.410;9.730;2023-04-24T14:39:25;12.00;99.90
47482;DHT22;33219;47.410;9.730;2023-04-24T14:41:53;12.10;99.90
47482;DHT22;33219;47.410;9.730;2023-04-24T14:44:21;12.20;99.90
47482;DHT22;33219;47.410;9.730;2023-04-24T14:46:49;12.20;99.90
47482;DHT22;33219;47.410;9.730;2023-04-24T14:49:16;12.20;99.90
47482;DHT22;33219;47.410;9.730;2023-04-24T14:51:44;12.40;99.90
47482;DHT22;33219;47.410;9.730;2023-04-24T14:54:12;12.30;99.90
47482;DHT22;33219;47.410;9.730;2023-04-24T14:56:40;12.10;99.90
47482;DHT22;33219;47.410;9.730;2023-04-24T14:59:09;12.10;99.90
47482;DHT22;33219;47.410;9.730;2023-04-24T15:01:36;12.00;99.90
47482;DHT22;33219;47.410;9.730;2023-04-24T15:04:04;11.90;99.90
47482;DHT22;33219;47.410;9.730;2023-04-24T15:06:32;11.80;99.90
47482;DHT22;33219;47.410;9.730;2023-04-24T15:09:00;11.60;99.90
47482;DHT22;33219;47.410;9.730;2023-04-24T15:11:27;11.40;99.90
47482;DHT22;33219;47.410;9.730;2023-04-24T15:13:56;11.20;99.90
47482;DHT22;33219;47.410;9.730;2023-04-24T15:16:24;11.10;99.90
47482;DHT22;33219;47.410;9.730;2023-04-24T15:18:51;11.20;99.90
47482;DHT22;33219;47.410;9.730;2023-04-24T15:21:19;11.20;99.90
47482;DHT22;33219;47.410;9.730;2023-04-24T15:23:47;11.30;99.90
47482;DHT22;33219;47.410;9.730;2023-04-24T15:26:14;11.30;99.90
47482;DHT22;33219;47.410;9.730;2023-04-24T15:28:42;11.30;99.90
47482;DHT22;33219;47.410;9.730;2023-04-24T15:31:09;11.30;99.90
47482;DHT22;33219;47.410;9.730;2023-04-24T15:33:37;11.20;99.90
47482;DHT22;33219;47.410;9.730;2023-04-24T15:36:05;11.10;99.90
47482;DHT22;33219;47.410;9.730;2023-04-24T15:38:32;10.90;99.90
47482;DHT22;33219;47.410;9.730;2023-04-24T15:41:00;10.80;99.90
47482;DHT22;33219;47.410;9.730;2023-04-24T15:43:28;10.70;99.90
47482;DHT22;33219;47.410;9.730;2023-04-24T15:45:57;10.70;99.90
47482;DHT22;33219;47.410;9.730;2023-04-24T15:48:25;10.70;99.90
47482;DHT22;33219;47.410;9.730;2023-04-24T15:50:54;10.80;99.90
47482;DHT22;33219;47.410;9.730;2023-04-24T15:53:24;10.80;99.90
47482;DHT22;33219;47.410;9.730;2023-04-24T15:55:54;10.80;99.90
47482;DHT22;33219;47.410;9.730;2023-04-24T15:58:23;10.80;99.90
47482;DHT22;33219;47.410;9.730;2023-04-24T16:00:51;10.80;99.90
47482;DHT22;33219;47.410;9.730;2023-04-24T16:03:20;10.80;99.90
47482;DHT22;33219;47.410;9.730;2023-04-24T16:05:48;10.80;99.90
47482;DHT22;33219;47.410;9.730;2023-04-24T16:08:15;10.60;99.90
47482;DHT22;33219;47.410;9.730;2023-04-24T16:10:43;10.60;99.90
47482;DHT22;33219;47.410;9.730;2023-04-24T16:13:13;10.40;99.90
47482;DHT22;33219;47.410;9.730;2023-04-24T16:15:43;10.20;99.90
47482;DHT22;33219;47.410;9.730;2023-04-24T16:18:11;9.90;99.90
47482;DHT22;33219;47.410;9.730;2023-04-24T16:20:39;9.60;99.90
47482;DHT22;33219;47.410;9.730;2023-04-24T16:23:07;9.50;99.90
47482;DHT22;33219;47.410;9.730;2023-04-24T16:25:34;9.30;99.90
47482;DHT22;33219;47.410;9.730;2023-04-24T16:28:02;9.20;99.90
47482;DHT22;33219;47.410;9.730;2023-04-24T16:30:30;9.20;99.90
47482;DHT22;33219;47.410;9.730;2023-04-24T16:32:58;9.30;99.90
47482;DHT22;33219;47.410;9.730;2023-04-24T16:35:25;9.50;99.90
47482;DHT22;33219;47.410;9.730;2023-04-24T16:37:53;9.50;99.90
47482;DHT22;33219;47.410;9.730;2023-04-24T16:40:20;9.60;99.90
47482;DHT22;33219;47.410;9.730;2023-04-24T16:42:48;9.70;99.90
47482;DHT22;33219;47.410;9.730;2023-04-24T16:45:16;9.80;99.90
47482;DHT22;33219;47.410;9.730;2023-04-24T16:47:44;9.90;99.90
47482;DHT22;33219;47.410;9.730;2023-04-24T16:50:12;9.90;99.90
47482;DHT22;33219;47.410;9.730;2023-04-24T16:52:39;10.00;99.90
47482;DHT22;33219;47.410;9.730;2023-04-24T16:55:07;10.00;99.90
47482;DHT22;33219;47.410;9.730;2023-04-24T16:57:36;10.00;99.90
47482;DHT22;33219;47.410;9.730;2023-04-24T17:00:04;10.00;99.90
47482;DHT22;33219;47.410;9.730;2023-04-24T17:02:32;9.90;99.90
47482;DHT22;33219;47.410;9.730;2023-04-24T17:04:59;9.90;99.90
47482;DHT22;33219;47.410;9.730;2023-04-24T17:07:30;9.80;99.90
47482;DHT22;33219;47.410;9.730;2023-04-24T17:09:57;9.70;99.90
47482;DHT22;33219;47.410;9.730;2023-04-24T17:12:25;9.70;99.90
47482;DHT22;33219;47.410;9.730;2023-04-24T17:14:53;9.70;99.90
47482;DHT22;33219;47.410;9.730;2023-04-24T17:17:20;9.80;99.90
47482;DHT22;33219;47.410;9.730;2023-04-24T17:19:49;9.70;99.90
47482;DHT22;33219;47.410;9.730;2023-04-24T17:22:16;9.70;99.90
47482;DHT22;33219;47.410;9.730;2023-04-24T17:24:44;9.80;99.90
47482;DHT22;33219;47.410;9.730;2023-04-24T17:27:12;9.80;99.90
47482;DHT22;33219;47.410;9.730;2023-04-24T17:29:40;9.80;99.90
47482;DHT22;33219;47.410;9.730;2023-04-24T17:32:08;9.80;99.90
47482;DHT22;33219;47.410;9.730;2023-04-24T17:34:35;9.80;99.90